createdAt,value
2024-02-12T00:01:01.456Z,80.4
2024-02-12T00:02:14.000Z,80.5
2024-02-12T00:03:33.843Z,80.4
2024-02-12T00:04:50.037Z,80.4
2024-02-12T00:06:06.230Z,80.4
2024-02-12T00:07:22.424Z,80.3
2024-02-12T00:08:38.618Z,80.3
2024-02-12T00:09:54.812Z,80.5
2024-02-12T00:11:11.006Z,80.4
2024-02-12T00:12:27.200Z,80.5
2024-02-12T00:13:43.394Z,80.4
2024-02-12T00:14:56.000Z,80.3
2024-02-12T00:16:15.781Z,80.4
2024-02-12T00:17:27.000Z,80.4
2024-02-12T00:18:47.185Z,80.3
2024-02-12T00:20:00.000Z,80.3
2024-02-12T00:21:19.573Z,80.3
2024-02-12T00:22:35.767Z,80.2
2024-02-12T00:23:51.960Z,80.3
2024-02-12T00:25:08.154Z,80.3
2024-02-12T00:26:24.348Z,80.6
2024-02-12T00:27:37.000Z,80.6
2024-02-12T00:28:56.735Z,80.9
2024-02-12T00:30:12.929Z,81.1
2024-02-12T00:31:29.123Z,81.2
2024-02-12T00:32:42.000Z,81.4
2024-02-12T00:34:00.527Z,81.4
2024-02-12T00:35:16.720Z,81.4
2024-02-12T00:36:32.914Z,81.3
2024-02-12T00:37:46.000Z,81.5
2024-02-12T00:39:05.301Z,81.8
2024-02-12T00:40:18.000Z,82.1
2024-02-12T00:41:37.689Z,82
2024-02-12T00:42:53.883Z,82.2
2024-02-12T00:44:10.077Z,82.3
2024-02-12T00:45:26.271Z,82.3
2024-02-12T00:46:42.465Z,82.3
2024-02-12T00:47:58.659Z,82.2
2024-02-12T00:49:14.853Z,82.4
2024-02-12T00:50:30.062Z,82.3
2024-02-12T00:51:46.257Z,82.3
2024-02-12T00:52:59.000Z,82.2
2024-02-12T00:54:18.645Z,82
2024-02-12T00:55:31.000Z,82.1
2024-02-12T00:56:51.033Z,82
2024-02-12T00:58:04.000Z,82
2024-02-12T00:59:23.420Z,81.8
2024-02-12T01:00:23.000Z,81.8
2024-02-12T01:01:55.808Z,82
2024-02-12T01:03:12.002Z,81.8
2024-02-12T01:04:28.195Z,81.8
2024-02-12T01:05:44.389Z,81.7
2024-02-12T01:06:59.598Z,81.5
2024-02-12T01:08:12.000Z,81.7
2024-02-12T01:09:31.988Z,81.6
2024-02-12T01:10:45.000Z,81.6
2024-02-12T01:12:04.378Z,81.6
2024-02-12T01:13:17.000Z,81.6
2024-02-12T01:14:36.768Z,81.6
2024-02-12T01:15:52.962Z,81.4
2024-02-12T01:17:09.158Z,81.6
2024-02-12T01:18:22.000Z,81.4
2024-02-12T01:19:25.000Z,81.3
2024-02-12T01:20:54.000Z,81.5
2024-02-12T01:22:13.937Z,81.5
2024-02-12T01:23:29.149Z,81.5
2024-02-12T01:24:29.000Z,81.6
2024-02-12T01:25:58.000Z,81.6
2024-02-12T01:27:17.734Z,81.8
2024-02-12T01:28:30.000Z,81.7
2024-02-12T01:29:50.124Z,81.8
2024-02-12T01:31:06.319Z,82.1
2024-02-12T01:32:22.515Z,82
2024-02-12T01:33:38.710Z,82.1
2024-02-12T01:34:54.906Z,82.2
2024-02-12T01:36:11.100Z,82.2
2024-02-12T01:37:27.296Z,82.2
2024-02-12T01:38:43.492Z,82
2024-02-12T01:39:58.704Z,82
2024-02-12T01:41:14.898Z,82.2
2024-02-12T01:42:31.095Z,82.3
2024-02-12T01:43:44.000Z,82.4
2024-02-12T01:45:03.486Z,82.8
2024-02-12T01:46:16.000Z,83.1
2024-02-12T01:47:35.877Z,83.3
2024-02-12T01:48:52.072Z,83.5
2024-02-12T01:50:08.268Z,83.7
2024-02-12T01:51:24.464Z,83.5
2024-02-12T01:52:40.660Z,83.8
2024-02-12T01:53:56.855Z,83.6
2024-02-12T01:55:13.052Z,83.7
2024-02-12T01:56:25.000Z,83.9
2024-02-12T01:57:28.000Z,84.1
2024-02-12T01:59:00.655Z,84.1
2024-02-12T02:00:16.851Z,84.3
2024-02-12T02:01:33.046Z,84.4
2024-02-12T02:02:49.243Z,84.3
2024-02-12T02:03:48.000Z,84.4
2024-02-12T02:05:20.655Z,84.5
2024-02-12T02:06:33.000Z,84.6
2024-02-12T02:07:53.047Z,84.5
2024-02-12T02:09:06.000Z,84.5
2024-02-12T02:10:25.438Z,84.8
2024-02-12T02:11:38.000Z,85
2024-02-12T02:12:57.830Z,85.7
2024-02-12T02:14:14.025Z,85.8
2024-02-12T02:15:30.222Z,86.1
2024-02-12T02:16:46.417Z,86.6
2024-02-12T02:18:02.613Z,86.6
2024-02-12T02:19:18.809Z,86.8
2024-02-12T02:20:34.021Z,87
2024-02-12T02:21:50.215Z,87.2
2024-02-12T02:23:06.411Z,87.1
2024-02-12T02:24:19.000Z,87.2
2024-02-12T02:25:38.803Z,87.4
2024-02-12T02:26:51.000Z,87.4
2024-02-12T02:28:11.195Z,87.8
2024-02-12T02:29:27.390Z,87.8
2024-02-12T02:30:43.586Z,87.7
2024-02-12T02:31:43.000Z,87.4
2024-02-12T02:33:15.978Z,87.6
2024-02-12T02:34:29.000Z,87.6
2024-02-12T02:35:48.369Z,88
2024-02-12T02:37:00.000Z,87.7
2024-02-12T02:38:19.777Z,88
2024-02-12T02:39:32.000Z,88
2024-02-12T02:40:52.169Z,88
2024-02-12T02:42:08.364Z,87.8
2024-02-12T02:43:24.560Z,88
2024-02-12T02:44:40.755Z,87.9
2024-02-12T02:45:56.952Z,88
2024-02-12T02:47:10.000Z,88.1
2024-02-12T02:48:29.343Z,88.1
2024-02-12T02:49:42.000Z,88.2
2024-02-12T02:51:01.735Z,88
2024-02-12T02:52:17.930Z,88.3
2024-02-12T02:53:33.142Z,88.2
2024-02-12T02:54:49.337Z,88.1
2024-02-12T02:56:05.533Z,88.1
2024-02-12T02:57:05.000Z,88.3
2024-02-12T02:58:21.000Z,88
2024-02-12T02:59:54.120Z,87.7
2024-02-12T03:01:10.317Z,87.5
2024-02-12T03:02:23.000Z,87.5
2024-02-12T03:03:42.708Z,87.5
2024-02-12T03:04:58.904Z,87.5
2024-02-12T03:06:15.100Z,87.7
2024-02-12T03:07:15.000Z,87.3
2024-02-12T03:10:03.687Z,87.5
2024-02-12T03:11:18.899Z,87.5
2024-02-12T03:12:35.094Z,87.7
2024-02-12T03:13:51.290Z,87.7
2024-02-12T03:15:07.485Z,87.6
2024-02-12T03:16:23.681Z,87.5
2024-02-12T03:17:39.877Z,87.6
2024-02-12T03:18:56.073Z,87.7
2024-02-12T03:20:12.268Z,87.5
2024-02-12T03:21:28.464Z,87.2
2024-02-12T03:22:44.660Z,87.4
2024-02-12T03:24:00.856Z,87.2
2024-02-12T03:25:17.051Z,87.2
2024-02-12T03:26:33.248Z,87.1
2024-02-12T03:27:48.459Z,87
2024-02-12T03:29:04.655Z,87.1
2024-02-12T03:30:17.000Z,87
2024-02-12T03:31:37.047Z,87.1
2024-02-12T03:32:53.242Z,87
2024-02-12T03:34:09.438Z,86.8
2024-02-12T03:35:25.634Z,86.8
2024-02-12T03:36:41.830Z,86.9
2024-02-12T03:37:58.026Z,87.1
2024-02-12T03:39:14.222Z,86.7
2024-02-12T03:40:30.417Z,86.9
2024-02-12T03:41:46.613Z,86.8
2024-02-12T03:43:02.808Z,86.8
2024-02-12T03:44:18.021Z,86.7
2024-02-12T03:45:31.000Z,86.8
2024-02-12T03:46:50.411Z,86.8
2024-02-12T03:47:50.000Z,86.6
2024-02-12T03:49:22.803Z,86.6
2024-02-12T03:50:38.998Z,86.8
2024-02-12T03:51:55.195Z,86.6
2024-02-12T03:53:08.000Z,86.6
2024-02-12T03:54:27.586Z,86.8
2024-02-12T03:55:40.000Z,86.8
2024-02-12T03:56:59.978Z,86.7
2024-02-12T03:58:00.000Z,86.7
2024-02-12T03:59:32.369Z,86.6
2024-02-12T04:00:31.000Z,86.7
2024-02-12T04:02:03.777Z,86.7
2024-02-12T04:03:19.972Z,86.9
2024-02-12T04:04:36.169Z,86.8
2024-02-12T04:05:49.000Z,86.9
2024-02-12T04:07:08.560Z,86.9
2024-02-12T04:08:24.755Z,86.8
2024-02-12T04:09:40.952Z,86.6
2024-02-12T04:10:57.147Z,86.8
2024-02-12T04:12:13.343Z,86.5
2024-02-12T04:13:29.539Z,86.6
2024-02-12T04:14:45.735Z,86.5
2024-02-12T04:16:01.930Z,86.3
2024-02-12T04:17:17.142Z,86.1
2024-02-12T04:18:33.337Z,86
2024-02-12T04:19:49.533Z,86
2024-02-12T04:21:05.728Z,86
2024-02-12T04:22:21.925Z,85.8
2024-02-12T04:23:35.000Z,86
2024-02-12T04:24:54.316Z,85.9
2024-02-12T04:26:07.000Z,85.8
2024-02-12T04:27:26.708Z,85.7
2024-02-12T04:28:42.903Z,85.9
2024-02-12T04:29:59.100Z,85.8
2024-02-12T04:31:15.295Z,86.2
2024-02-12T04:32:31.491Z,86.7
2024-02-12T04:33:46.702Z,86.9
2024-02-12T04:35:02.899Z,86.8
2024-02-12T04:36:19.094Z,86.9
2024-02-12T04:37:35.290Z,87.1
2024-02-12T04:38:51.486Z,87.4
2024-02-12T04:40:07.682Z,87.2
2024-02-12T04:41:23.877Z,87.2
2024-02-12T04:42:40.073Z,87.4
2024-02-12T04:43:56.269Z,87
2024-02-12T04:45:12.465Z,86.9
2024-02-12T04:46:25.000Z,87
2024-02-12T04:47:44.856Z,86.9
2024-02-12T04:49:01.052Z,86.9
2024-02-12T04:50:16.264Z,86.7
2024-02-12T04:51:29.000Z,86.9
2024-02-12T04:52:48.655Z,86.8
2024-02-12T04:54:04.850Z,87
2024-02-12T04:55:21.046Z,86.6
2024-02-12T04:56:34.000Z,87.1
2024-02-12T04:57:53.438Z,87.3
2024-02-12T04:59:06.000Z,87.2
2024-02-12T05:00:25.829Z,87
2024-02-12T05:01:42.025Z,86.9
2024-02-12T05:02:58.221Z,86.5
2024-02-12T05:04:11.000Z,86.7
2024-02-12T05:05:30.612Z,86.3
2024-02-12T05:06:45.824Z,86.1
2024-02-12T05:08:02.020Z,86.2
2024-02-12T05:09:18.216Z,86
2024-02-12T05:10:34.412Z,85.7
2024-02-12T05:11:47.000Z,85.6
2024-02-12T05:13:06.803Z,85.5
2024-02-12T05:14:06.000Z,85.3
2024-02-12T05:15:23.000Z,85.3
2024-02-12T05:16:55.390Z,85.1
2024-02-12T05:18:11.586Z,85.3
2024-02-12T05:19:27.782Z,86
2024-02-12T05:20:43.978Z,86.3
2024-02-12T05:22:00.173Z,86.8
2024-02-12T05:23:15.385Z,86.3
2024-02-12T05:24:31.581Z,85.9
2024-02-12T05:25:47.777Z,85.7
2024-02-12T05:26:47.000Z,85.6
2024-02-12T05:28:20.169Z,86
2024-02-12T05:29:36.364Z,86.1
2024-02-12T05:30:36.000Z,85.9
2024-02-12T05:32:08.756Z,85.8
2024-02-12T05:33:24.952Z,85.8
2024-02-12T05:34:41.147Z,86.1
2024-02-12T05:35:57.344Z,86.3
2024-02-12T05:37:13.539Z,86.1
2024-02-12T05:38:29.735Z,85.7
2024-02-12T05:39:44.946Z,86
2024-02-12T05:41:01.143Z,85.8
2024-02-12T05:42:14.000Z,85.7
2024-02-12T05:43:33.534Z,85.6
2024-02-12T05:44:49.730Z,85.7
2024-02-12T05:46:05.926Z,85.6
2024-02-12T05:47:22.121Z,85.7
2024-02-12T05:48:38.318Z,85.6
2024-02-12T05:49:51.000Z,85.7
2024-02-12T05:51:10.709Z,85.3
2024-02-12T05:52:23.000Z,85.2
2024-02-12T05:53:43.101Z,85.4
2024-02-12T05:54:59.296Z,85.2
2024-02-12T05:56:14.509Z,85.3
2024-02-12T05:57:30.705Z,85.8
2024-02-12T05:58:46.902Z,85.2
2024-02-12T06:00:03.098Z,85.4
2024-02-12T06:01:19.294Z,85.3
2024-02-12T06:02:35.489Z,85.6
2024-02-12T06:03:51.686Z,85.7
2024-02-12T06:05:07.882Z,85.3
2024-02-12T06:06:24.078Z,85.3
2024-02-12T06:07:40.273Z,85.6
2024-02-12T06:08:56.470Z,85.4
2024-02-12T06:10:12.666Z,85.3
2024-02-12T06:11:28.862Z,85.4
2024-02-12T06:12:41.000Z,85.3
2024-02-12T06:14:00.270Z,85.4
2024-02-12T06:15:16.465Z,85.2
2024-02-12T06:16:32.661Z,85.2
2024-02-12T06:17:48.856Z,85.1
2024-02-12T06:19:04.075Z,85.1
2024-02-12T06:20:20.270Z,84.5
2024-02-12T06:21:36.467Z,84.2
2024-02-12T06:22:52.663Z,84.5
2024-02-12T06:24:08.859Z,84.3
2024-02-12T06:25:22.000Z,84.1
2024-02-12T06:26:41.251Z,84
2024-02-12T06:27:57.447Z,84
2024-02-12T06:29:13.644Z,83.9
2024-02-12T06:30:29.839Z,83.9
2024-02-12T06:31:29.000Z,83.9
2024-02-12T06:32:59.000Z,84
2024-02-12T06:34:18.427Z,83.9
2024-02-12T06:35:33.638Z,84
2024-02-12T06:36:49.835Z,83.7
2024-02-12T06:38:06.030Z,83.7
2024-02-12T06:39:22.226Z,83.7
2024-02-12T06:40:38.422Z,83.5
2024-02-12T06:41:54.618Z,83.6
2024-02-12T06:43:07.000Z,83.7
2024-02-12T06:44:27.009Z,84.1
2024-02-12T06:45:40.000Z,83.8
2024-02-12T06:46:59.401Z,84.3
2024-02-12T06:48:15.596Z,84.8
2024-02-12T06:49:31.793Z,84.8
2024-02-12T06:50:47.989Z,84.7
2024-02-12T06:52:03.202Z,84.8
2024-02-12T06:53:19.398Z,85
2024-02-12T06:54:35.594Z,85
2024-02-12T06:55:48.000Z,84.5
2024-02-12T06:57:07.986Z,84.8
2024-02-12T06:58:24.182Z,84.3
2024-02-12T06:59:40.379Z,84.4
2024-02-12T07:00:56.575Z,84.6
2024-02-12T07:02:12.771Z,84.4
2024-02-12T07:03:28.966Z,84.9
2024-02-12T07:04:45.162Z,84.6
2024-02-12T07:06:01.358Z,84.8
2024-02-12T07:07:17.554Z,84.5
2024-02-12T07:08:29.000Z,84.7
2024-02-12T07:09:48.962Z,84.7
2024-02-12T07:11:02.000Z,84.7
2024-02-12T07:12:21.353Z,84.3
2024-02-12T07:13:37.549Z,84.8
2024-02-12T07:14:53.745Z,85.1
2024-02-12T07:16:09.940Z,84.7
2024-02-12T07:17:26.136Z,84.8
2024-02-12T07:18:42.332Z,84.7
2024-02-12T07:19:58.528Z,85
2024-02-12T07:21:11.000Z,85
2024-02-12T07:22:30.920Z,84.7
2024-02-12T07:23:30.000Z,84.3
2024-02-12T07:25:02.329Z,84.7
2024-02-12T07:26:18.525Z,84.9
2024-02-12T07:27:34.721Z,84.5
2024-02-12T07:28:50.916Z,84.5
2024-02-12T07:30:07.112Z,84.3
2024-02-12T07:31:23.308Z,84.1
2024-02-12T07:32:39.505Z,84.2
2024-02-12T07:33:52.000Z,84.2
2024-02-12T07:35:11.897Z,84.5
2024-02-12T07:36:11.000Z,84
2024-02-12T07:37:44.289Z,84.3
2024-02-12T07:39:00.485Z,84.3
2024-02-12T07:40:16.681Z,84.2
2024-02-12T07:41:31.892Z,84.4
2024-02-12T07:42:48.089Z,84
2024-02-12T07:44:04.284Z,83.8
2024-02-12T07:45:20.480Z,83.9
2024-02-12T07:46:33.000Z,83.7
2024-02-12T07:47:52.872Z,83.9
2024-02-12T07:49:06.000Z,83.8
2024-02-12T07:50:25.264Z,83.3
2024-02-12T07:51:41.460Z,83.6
2024-02-12T07:52:57.656Z,83.6
2024-02-12T07:54:13.851Z,83.6
2024-02-12T07:55:30.047Z,83.6
2024-02-12T07:56:46.243Z,83.2
2024-02-12T07:58:01.456Z,83.2
2024-02-12T07:59:14.000Z,83.4
2024-02-12T08:00:33.848Z,83.4
2024-02-12T08:01:47.000Z,83.5
2024-02-12T08:03:06.239Z,82.8
2024-02-12T08:04:22.435Z,82.3
2024-02-12T08:05:38.632Z,82.4
2024-02-12T08:06:54.827Z,82.6
2024-02-12T08:08:11.023Z,82.7
2024-02-12T08:09:27.219Z,82.6
2024-02-12T08:10:43.415Z,82.7
2024-02-12T08:11:59.610Z,82.7
2024-02-12T08:13:15.806Z,83
2024-02-12T08:14:28.000Z,82.8
2024-02-12T08:15:47.214Z,83.1
2024-02-12T08:17:03.410Z,83.1
2024-02-12T08:18:19.606Z,83
2024-02-12T08:19:35.801Z,83
2024-02-12T08:20:51.997Z,83.2
2024-02-12T08:22:08.193Z,83.3
2024-02-12T08:23:24.389Z,83.2
2024-02-12T08:24:40.584Z,83.1
2024-02-12T08:25:56.780Z,82.9
2024-02-12T08:27:09.000Z,82.5
2024-02-12T08:28:29.172Z,82.3
2024-02-12T08:29:45.367Z,82
2024-02-12T08:31:00.580Z,82.5
2024-02-12T08:32:00.000Z,82.2
2024-02-12T08:33:32.972Z,82.4
2024-02-12T08:34:49.168Z,82.4
2024-02-12T08:36:05.364Z,82.5
2024-02-12T08:37:18.000Z,82.5
2024-02-12T08:38:37.757Z,82.1
2024-02-12T08:39:50.000Z,82
2024-02-12T08:40:53.000Z,81.9
2024-02-12T08:42:26.346Z,82.1
2024-02-12T08:43:42.542Z,82.4
2024-02-12T08:44:58.737Z,82.2
2024-02-12T08:46:14.933Z,81.8
2024-02-12T08:47:30.146Z,81.3
2024-02-12T08:48:46.342Z,81.1
2024-02-12T08:50:02.539Z,81
2024-02-12T08:51:18.735Z,81.4
2024-02-12T08:52:31.000Z,81.1
2024-02-12T08:53:51.126Z,80.5
2024-02-12T08:55:07.323Z,80
2024-02-12T08:56:23.519Z,80.2
2024-02-12T08:57:39.714Z,80.1
2024-02-12T08:58:55.910Z,79.6
2024-02-12T09:00:12.108Z,79.1
2024-02-12T09:01:28.304Z,78.5
2024-02-12T09:02:41.000Z,78.6
2024-02-12T09:03:59.712Z,78.3
2024-02-12T09:05:15.908Z,78.2
2024-02-12T09:06:32.104Z,78
2024-02-12T09:07:48.300Z,77.8
2024-02-12T09:09:04.496Z,77.6
2024-02-12T09:10:20.691Z,76.8
2024-02-12T09:11:36.889Z,76.1
2024-02-12T09:12:53.084Z,75.9
2024-02-12T09:14:09.280Z,76
2024-02-12T09:15:22.000Z,75.6
2024-02-12T09:16:41.672Z,75.6
2024-02-12T09:17:54.000Z,75.8
2024-02-12T09:19:14.063Z,75.9
2024-02-12T09:20:29.276Z,75.8
2024-02-12T09:21:45.472Z,76.2
2024-02-12T09:23:01.668Z,76.5
2024-02-12T09:24:17.864Z,76.4
2024-02-12T09:25:34.059Z,75.5
2024-02-12T09:26:34.000Z,75.1
2024-02-12T09:28:06.451Z,74.7
2024-02-12T09:29:22.647Z,75
2024-02-12T09:30:35.000Z,75.3
2024-02-12T09:31:55.040Z,75.2
2024-02-12T09:33:08.000Z,75.3
2024-02-12T09:34:27.432Z,74.6
2024-02-12T09:35:43.628Z,74.9
2024-02-12T09:36:58.840Z,74.8
2024-02-12T09:38:15.036Z,74.5
2024-02-12T09:39:31.232Z,74.5
2024-02-12T09:40:47.428Z,74.7
2024-02-12T09:42:03.624Z,74.6
2024-02-12T09:43:16.000Z,75.2
2024-02-12T09:44:36.017Z,74.7
2024-02-12T09:45:49.000Z,74.4
2024-02-12T09:47:08.409Z,74.2
2024-02-12T09:48:08.000Z,73.7
2024-02-12T09:49:40.800Z,73.3
2024-02-12T09:50:56.995Z,73.9
2024-02-12T09:52:13.192Z,73.9
2024-02-12T09:53:25.000Z,72
2024-02-12T09:54:44.600Z,72.8
2024-02-12T09:55:57.000Z,73.1
2024-02-12T09:57:00.000Z,72.8
2024-02-12T09:58:33.187Z,72.5
2024-02-12T09:59:49.383Z,72.5
2024-02-12T10:01:05.579Z,72.7
2024-02-12T10:02:21.775Z,72.8
2024-02-12T10:03:37.970Z,71.9
2024-02-12T10:04:54.166Z,71.8
2024-02-12T10:06:07.000Z,72
2024-02-12T10:07:26.557Z,71.8
2024-02-12T10:08:42.752Z,71.8
2024-02-12T10:09:57.965Z,71.6
2024-02-12T10:11:14.161Z,71.4
2024-02-12T10:12:30.357Z,72.1
2024-02-12T10:13:46.552Z,71.5
2024-02-12T10:15:02.748Z,71.5
2024-02-12T10:16:18.943Z,72.2
2024-02-12T10:17:35.141Z,71.7
2024-02-12T10:18:48.000Z,71.4
2024-02-12T10:20:07.532Z,70.9
2024-02-12T10:21:20.000Z,71.3
2024-02-12T10:22:36.000Z,71.7
2024-02-12T10:23:53.000Z,70.8
2024-02-12T10:25:12.315Z,70.8
2024-02-12T10:26:27.527Z,70.7
2024-02-12T10:27:43.723Z,71.8
2024-02-12T10:28:59.920Z,71.3
2024-02-12T10:30:16.116Z,71.8
2024-02-12T10:31:29.000Z,71.2
2024-02-12T10:32:48.509Z,70.9
2024-02-12T10:33:47.000Z,70.7
2024-02-12T10:35:03.000Z,71.5
2024-02-12T10:36:19.000Z,72
2024-02-12T10:37:52.314Z,71.3
2024-02-12T10:39:08.511Z,70.1
2024-02-12T10:40:24.708Z,69.3
2024-02-12T10:41:40.901Z,68.8
2024-02-12T10:42:40.000Z,69.5
2024-02-12T10:44:10.000Z,69.4
2024-02-12T10:45:29.482Z,69.4
2024-02-12T10:46:42.000Z,69
2024-02-12T10:48:01.869Z,68.5
2024-02-12T10:49:18.063Z,67.9
2024-02-12T10:50:33.273Z,68.2
2024-02-12T10:51:49.467Z,69.1
2024-02-12T10:53:05.661Z,70.3
2024-02-12T10:54:21.855Z,69.5
2024-02-12T10:55:38.048Z,69.8
2024-02-12T10:56:54.242Z,69.2
2024-02-12T10:58:10.435Z,69.5
2024-02-12T10:59:23.000Z,69.6
2024-02-12T11:00:42.823Z,69
2024-02-12T11:01:59.017Z,68.8
2024-02-12T11:03:15.210Z,68.8
2024-02-12T11:04:31.404Z,67.7
2024-02-12T11:05:47.597Z,67.8
2024-02-12T11:07:02.807Z,68.4
2024-02-12T11:08:19.001Z,68.2
2024-02-12T11:09:32.000Z,68.8
2024-02-12T11:10:51.388Z,68.1
2024-02-12T11:12:04.000Z,68.2
2024-02-12T11:13:23.776Z,67.2
2024-02-12T11:14:36.000Z,67.3
2024-02-12T11:15:56.164Z,67.1
2024-02-12T11:17:12.357Z,65.8
2024-02-12T11:18:28.551Z,64.1
2024-02-12T11:19:44.745Z,63.1
2024-02-12T11:20:44.000Z,63.1
2024-02-12T11:22:17.132Z,63.2
2024-02-12T11:23:32.342Z,63.8
2024-02-12T11:24:45.000Z,63.5
2024-02-12T11:25:48.000Z,63.6
2024-02-12T11:27:17.000Z,65.2
2024-02-12T11:28:37.117Z,64.9
2024-02-12T11:29:53.311Z,65.4
2024-02-12T11:31:09.504Z,64.5
2024-02-12T11:32:25.698Z,63.8
2024-02-12T11:33:41.892Z,64.6
2024-02-12T11:34:55.000Z,64.5
2024-02-12T11:36:14.279Z,64.1
2024-02-12T11:37:27.000Z,64.1
2024-02-12T11:38:46.666Z,63.8
2024-02-12T11:39:58.000Z,65
2024-02-12T11:41:18.071Z,64.6
2024-02-12T11:42:34.265Z,63.7
2024-02-12T11:43:50.458Z,63.8
2024-02-12T11:45:06.652Z,64.5
2024-02-12T11:46:22.846Z,64.4
2024-02-12T11:47:36.000Z,64.4
2024-02-12T11:48:55.234Z,64
2024-02-12T11:50:08.000Z,64.2
2024-02-12T11:51:27.621Z,64.6
2024-02-12T11:52:43.815Z,65
2024-02-12T11:54:00.008Z,65.6
2024-02-12T11:55:16.202Z,65.9
2024-02-12T11:56:31.413Z,66.5
2024-02-12T11:57:44.000Z,66.3
2024-02-12T11:59:03.800Z,65.7
2024-02-12T12:00:16.000Z,65.9
2024-02-12T12:01:36.187Z,66
2024-02-12T12:02:49.000Z,65.9
2024-02-12T12:04:08.575Z,66.3
2024-02-12T12:05:24.769Z,66.2
2024-02-12T12:06:24.000Z,66.5
2024-02-12T12:07:40.000Z,67
2024-02-12T12:09:13.349Z,67.1
2024-02-12T12:10:29.543Z,66.4
2024-02-12T12:11:45.737Z,66.9
2024-02-12T12:13:00.946Z,66.5
2024-02-12T12:14:00.000Z,67.1
2024-02-12T12:15:33.334Z,66.6
2024-02-12T12:16:49.527Z,66.6
2024-02-12T12:18:02.000Z,67.3
2024-02-12T12:19:21.916Z,67.2
2024-02-12T12:20:38.110Z,67.6
2024-02-12T12:21:54.303Z,67.7
2024-02-12T12:23:10.497Z,67.6
2024-02-12T12:24:26.690Z,67.9
2024-02-12T12:25:39.000Z,67.6
2024-02-12T12:26:59.077Z,66.8
2024-02-12T12:28:12.000Z,67.1
2024-02-12T12:29:30.482Z,67.4
2024-02-12T12:30:46.676Z,67.2
2024-02-12T12:32:02.869Z,66.5
2024-02-12T12:33:02.000Z,66.6
2024-02-12T12:34:35.257Z,66
2024-02-12T12:35:51.450Z,65.1
2024-02-12T12:37:07.644Z,65.6
2024-02-12T12:38:20.000Z,64.8
2024-02-12T12:39:40.031Z,65.3
2024-02-12T12:40:53.000Z,65.2
2024-02-12T12:41:56.000Z,64.4
2024-02-12T12:43:28.612Z,65.1
2024-02-12T12:44:28.000Z,64.8
2024-02-12T12:45:57.000Z,63.8
2024-02-12T12:47:16.209Z,62.9
2024-02-12T12:48:32.403Z,63.7
2024-02-12T12:49:48.597Z,64.2
2024-02-12T12:51:04.791Z,64.3
2024-02-12T12:52:20.985Z,64.4
2024-02-12T12:53:34.000Z,64.3
2024-02-12T12:54:53.372Z,64.3
2024-02-12T12:56:06.000Z,64.3
2024-02-12T12:57:25.759Z,64.3
2024-02-12T12:58:41.953Z,65.2
2024-02-12T12:59:58.147Z,64.8
2024-02-12T13:01:11.000Z,65.3
2024-02-12T13:02:29.551Z,65.7
2024-02-12T13:03:45.745Z,65.8
2024-02-12T13:04:45.000Z,65.9
2024-02-12T13:06:01.000Z,65.6
2024-02-12T13:07:34.326Z,65.9
2024-02-12T13:08:50.520Z,65.8
2024-02-12T13:10:06.713Z,66.3
2024-02-12T13:11:22.907Z,65
2024-02-12T13:12:39.100Z,65.8
2024-02-12T13:13:52.000Z,64.8
2024-02-12T13:15:11.488Z,65
2024-02-12T13:16:24.000Z,64.6
2024-02-12T13:17:43.875Z,64.6
2024-02-12T13:18:56.000Z,64.3
2024-02-12T13:20:15.279Z,64.2
2024-02-12T13:21:28.000Z,64.5
2024-02-12T13:22:47.666Z,64.3
2024-02-12T13:24:03.860Z,63.8
2024-02-12T13:25:20.054Z,63.8
2024-02-12T13:26:36.248Z,64.4
2024-02-12T13:27:52.441Z,63.9
2024-02-12T13:29:05.000Z,63.5
2024-02-12T13:30:08.000Z,63.2
2024-02-12T13:31:38.000Z,63.2
2024-02-12T13:32:57.216Z,64.5
2024-02-12T13:34:10.000Z,64.1
2024-02-12T13:35:28.620Z,62.3
2024-02-12T13:36:44.814Z,62.1
2024-02-12T13:37:44.000Z,62.9
2024-02-12T13:39:17.202Z,62.1
2024-02-12T13:40:33.395Z,61.3
2024-02-12T13:41:46.000Z,61.4
2024-02-12T13:43:05.782Z,62.1
2024-02-12T13:44:05.000Z,62.5
2024-02-12T13:45:38.170Z,61.7
2024-02-12T13:46:54.364Z,61.1
2024-02-12T13:48:10.557Z,60.9
2024-02-12T13:49:10.000Z,60.7
2024-02-12T13:50:42.944Z,59.8
2024-02-12T13:51:41.000Z,59.8
2024-02-12T13:53:14.349Z,60.1
2024-02-12T13:54:27.000Z,59
2024-02-12T13:55:46.736Z,60.4
2024-02-12T13:56:59.000Z,60.1
2024-02-12T13:58:19.125Z,60.6
2024-02-12T13:59:35.318Z,60.6
2024-02-12T14:00:51.512Z,60.5
2024-02-12T14:02:04.000Z,60.3
2024-02-12T14:03:23.899Z,61.3
2024-02-12T14:04:40.093Z,61.2
2024-02-12T14:05:56.286Z,61.2
2024-02-12T14:07:09.000Z,62.1
2024-02-12T14:08:27.691Z,62.1
2024-02-12T14:09:40.000Z,62.7
2024-02-12T14:11:00.078Z,62.6
2024-02-12T14:11:59.000Z,62.9
2024-02-12T14:13:32.465Z,63.2
2024-02-12T14:14:48.659Z,63.5
2024-02-12T14:16:04.853Z,63.9
2024-02-12T14:17:21.047Z,63.3
2024-02-12T14:18:37.240Z,63.6
2024-02-12T14:19:50.000Z,64
2024-02-12T14:21:09.627Z,63.8
2024-02-12T14:22:22.000Z,64.3
2024-02-12T14:23:42.015Z,64.1
2024-02-12T14:24:57.224Z,64.1
2024-02-12T14:26:13.418Z,64.1
2024-02-12T14:27:29.612Z,64.1
2024-02-12T14:28:45.805Z,64.7
2024-02-12T14:30:01.999Z,64
2024-02-12T14:31:01.000Z,64.3
2024-02-12T14:32:31.000Z,64.7
2024-02-12T14:33:50.581Z,65
2024-02-12T14:35:03.000Z,64.8
2024-02-12T14:36:19.000Z,65
2024-02-12T14:37:39.162Z,65.2
2024-02-12T14:38:55.356Z,64.9
2024-02-12T14:40:11.550Z,65
2024-02-12T14:41:26.760Z,65.1
2024-02-12T14:42:42.954Z,65.5
2024-02-12T14:43:59.148Z,65.8
2024-02-12T14:45:12.000Z,65.8
2024-02-12T14:46:31.535Z,65.8
2024-02-12T14:47:44.000Z,65.7
2024-02-12T14:49:02.944Z,65.2
2024-02-12T14:50:19.138Z,65.5
2024-02-12T14:51:35.332Z,65.7
2024-02-12T14:52:51.526Z,65.4
2024-02-12T14:54:07.720Z,65.6
2024-02-12T14:55:20.000Z,65.9
2024-02-12T14:56:40.107Z,66.7
2024-02-12T14:57:53.000Z,66.7
2024-02-12T14:59:12.495Z,66.9
2024-02-12T15:00:25.000Z,67.7
2024-02-12T15:01:44.882Z,67.1
2024-02-12T15:02:58.000Z,67.3
2024-02-12T15:04:17.270Z,67.5
2024-02-12T15:05:32.480Z,67.7
2024-02-12T15:06:48.674Z,67.6
2024-02-12T15:08:04.867Z,68.1
2024-02-12T15:09:21.061Z,68.4
2024-02-12T15:10:34.000Z,68.1
2024-02-12T15:11:53.448Z,67.9
2024-02-12T15:13:06.000Z,68.3
2024-02-12T15:14:25.835Z,67.8
2024-02-12T15:15:42.029Z,67.3
2024-02-12T15:16:58.223Z,67.5
2024-02-12T15:17:57.000Z,67.7
2024-02-12T15:19:30.610Z,68
2024-02-12T15:20:43.000Z,68
2024-02-12T15:21:45.000Z,67.2
2024-02-12T15:23:15.000Z,67.2
2024-02-12T15:24:34.401Z,67.7
2024-02-12T15:25:47.000Z,68
2024-02-12T15:27:06.789Z,67.9
2024-02-12T15:28:22.983Z,68.2
2024-02-12T15:29:39.177Z,68
2024-02-12T15:30:55.371Z,67.8
2024-02-12T15:31:55.000Z,67.9
2024-02-12T15:33:27.758Z,67.8
2024-02-12T15:34:43.952Z,67.6
2024-02-12T15:35:57.000Z,67.4
2024-02-12T15:37:16.340Z,66.9
2024-02-12T15:38:31.550Z,67.3
2024-02-12T15:39:47.743Z,67.5
2024-02-12T15:41:03.937Z,67.8
2024-02-12T15:42:20.131Z,68.5
2024-02-12T15:43:36.325Z,69
2024-02-12T15:44:52.518Z,69.3
2024-02-12T15:46:08.712Z,69.8
2024-02-12T15:47:24.905Z,70.3
2024-02-12T15:48:38.000Z,70.8
2024-02-12T15:49:57.293Z,71.5
2024-02-12T15:51:10.000Z,71.9
2024-02-12T15:52:29.680Z,72.3
2024-02-12T15:53:42.000Z,72.6
2024-02-12T15:55:01.084Z,72.9
2024-02-12T15:56:17.278Z,72.9
2024-02-12T15:57:33.471Z,73
2024-02-12T15:58:49.665Z,73.4
2024-02-12T16:00:05.860Z,73.7
2024-02-12T16:01:05.000Z,74
2024-02-12T16:02:38.247Z,74.1
2024-02-12T16:03:51.000Z,74.1
2024-02-12T16:05:10.635Z,74
2024-02-12T16:06:23.000Z,74.2
2024-02-12T16:07:43.023Z,74.7
2024-02-12T16:08:59.217Z,74.7
2024-02-12T16:10:15.411Z,74.9
2024-02-12T16:11:30.621Z,74.9
2024-02-12T16:12:46.816Z,75.1
2024-02-12T16:14:03.010Z,75
2024-02-12T16:15:19.204Z,75
2024-02-12T16:16:32.000Z,75.2
2024-02-12T16:17:51.592Z,75.3
2024-02-12T16:19:07.786Z,75.3
2024-02-12T16:20:23.979Z,75.4
2024-02-12T16:21:23.000Z,75.5
2024-02-12T16:22:56.367Z,75.5
2024-02-12T16:24:12.561Z,75.6
2024-02-12T16:25:28.755Z,75.6
2024-02-12T16:26:41.000Z,75.8
2024-02-12T16:28:00.159Z,76.1
2024-02-12T16:29:16.353Z,76.3
2024-02-12T16:30:32.546Z,76.8
2024-02-12T16:31:48.740Z,77.3
2024-02-12T16:33:04.935Z,77.5
2024-02-12T16:34:21.129Z,77.6
2024-02-12T16:35:37.323Z,77.8
2024-02-12T16:36:53.517Z,78.5
2024-02-12T16:38:09.710Z,78.3
2024-02-12T16:39:25.904Z,78.7
2024-02-12T16:40:42.098Z,78.8
2024-02-12T16:41:55.000Z,79.4
2024-02-12T16:43:14.487Z,79.4
2024-02-12T16:44:29.696Z,79.7
2024-02-12T16:45:45.890Z,80.4
2024-02-12T16:47:02.084Z,79.9
2024-02-12T16:48:18.278Z,80.5
2024-02-12T16:49:34.472Z,80.5
2024-02-12T16:50:50.666Z,80.8
2024-02-12T16:52:03.000Z,81.2
2024-02-12T16:53:23.053Z,81.3
2024-02-12T16:54:36.000Z,81.2
2024-02-12T16:55:55.441Z,81.7
2024-02-12T16:57:11.635Z,81.1
2024-02-12T16:58:27.829Z,81.1
2024-02-12T16:59:44.023Z,81.4
2024-02-12T17:00:59.233Z,81.9